Terminal Aerodrome Forecast
Issued by NWS Pocatello, ID

Home | Current Version | Previous Version | Text Only | Print | Product List | Glossary On
Versions: 1 2 3 4 5 6 7 8 9 10 11 12
000
FTUS45 KPIH 201700
TAFBYI
TAF
KBYI 201720Z 2018/2118 08006KT P6SM FEW070
     FM202200 20010KT P6SM FEW100
     FM210200 16008KT P6SM VCSH SCT080 BKN110
     FM210500 16010KT P6SM -SHRA BKN090
     FM211000 25015G25KT P6SM VCSH BKN070 BKN090=

USA.gov is the U.S. government's official web portal to all federal, state and local government web resources and services.